createdAt,value
2023-04-13T00:00:17.589Z,4.00
2023-04-13T00:02:54.460Z,4.35
2023-04-13T00:05:23.782Z,4.00
2023-04-13T00:07:53.284Z,3.92
2023-04-13T00:10:21.672Z,3.78
2023-04-13T00:12:50.126Z,3.88
2023-04-13T00:15:19.690Z,4.43
2023-04-13T00:17:49.502Z,4.30
2023-04-13T00:20:17.920Z,3.88
2023-04-13T00:22:47.024Z,3.67
2023-04-13T00:25:16.081Z,3.85
2023-04-13T00:27:44.933Z,3.97
2023-04-13T00:30:14.789Z,4.55
2023-04-13T00:32:44.167Z,4.20
2023-04-13T00:35:18.781Z,4.30
2023-04-13T00:37:48.261Z,4.20
2023-04-13T00:40:18.070Z,4.50
2023-04-13T00:42:47.353Z,4.43
2023-04-13T00:45:15.929Z,4.13
2023-04-13T00:47:46.828Z,3.88
2023-04-13T00:50:18.452Z,3.90
2023-04-13T00:52:47.276Z,4.15
2023-04-13T00:55:21.635Z,4.03
2023-04-13T00:57:52.957Z,3.85
2023-04-13T01:00:22.279Z,4.10
2023-04-13T01:02:50.990Z,4.20
2023-04-13T01:05:20.896Z,5.82
2023-04-13T01:07:57.670Z,3.95
2023-04-13T01:10:29.878Z,4.80
2023-04-13T01:13:10.697Z,4.57
2023-04-13T01:15:40.937Z,3.95
2023-04-13T01:18:10.990Z,4.57
2023-04-13T01:20:43.739Z,4.78
2023-04-13T01:23:24.837Z,6.13
2023-04-13T01:25:57.652Z,6.07
2023-04-13T01:28:28.181Z,4.28
2023-04-13T01:30:57.601Z,4.70
2023-04-13T01:33:26.440Z,4.78
2023-04-13T01:35:56.332Z,4.20
2023-04-13T01:38:25.649Z,3.92
2023-04-13T01:40:54.154Z,4.03
2023-04-13T01:43:22.580Z,4.28
2023-04-13T01:45:57.253Z,4.10
2023-04-13T01:48:29.943Z,3.97
2023-04-13T01:50:59.707Z,4.18
2023-04-13T01:53:31.625Z,4.38
2023-04-13T01:56:01.051Z,5.25
2023-04-13T01:58:29.408Z,4.45
2023-04-13T02:00:59.196Z,4.13
2023-04-13T02:03:27.682Z,4.53
2023-04-13T02:05:56.762Z,4.05
2023-04-13T02:08:25.561Z,4.50
2023-04-13T02:10:53.977Z,4.70
2023-04-13T02:13:22.392Z,4.78
2023-04-13T02:15:50.719Z,4.13
2023-04-13T02:18:21.077Z,4.10
2023-04-13T02:20:49.456Z,4.05
2023-04-13T02:23:18.036Z,4.22
2023-04-13T02:25:47.897Z,4.88
2023-04-13T02:28:18.056Z,4.82
2023-04-13T02:30:47.080Z,4.63
2023-04-13T02:33:15.660Z,4.53
2023-04-13T02:35:45.669Z,4.32
2023-04-13T02:38:13.985Z,4.43
2023-04-13T02:40:43.212Z,4.35
2023-04-13T02:43:12.309Z,4.35
2023-04-13T02:45:41.035Z,4.05
2023-04-13T02:48:10.751Z,5.00
2023-04-13T02:50:39.172Z,4.45
2023-04-13T02:53:09.022Z,4.40
2023-04-13T02:55:37.775Z,4.70
2023-04-13T02:58:06.662Z,5.00
2023-04-13T03:00:35.041Z,5.45
2023-04-13T03:03:04.272Z,4.40
2023-04-13T03:05:32.841Z,4.68
2023-04-13T03:08:01.246Z,5.95
2023-04-13T03:10:31.887Z,4.55
2023-04-13T03:13:00.286Z,4.82
2023-04-13T03:15:29.365Z,4.78
2023-04-13T03:18:00.151Z,4.30
2023-04-13T03:20:29.317Z,4.80
2023-04-13T03:22:58.778Z,4.75
2023-04-13T03:25:27.139Z,6.20
2023-04-13T03:27:57.146Z,4.65
2023-04-13T03:30:25.680Z,4.88
2023-04-13T03:32:54.144Z,5.18
2023-04-13T03:35:22.542Z,4.70
2023-04-13T03:37:50.954Z,7.70
2023-04-13T03:40:19.262Z,4.55
2023-04-13T03:42:47.680Z,4.57
2023-04-13T03:45:19.152Z,4.85
2023-04-13T03:47:47.553Z,4.75
2023-04-13T03:50:16.009Z,4.38
2023-04-13T03:52:44.374Z,4.80
2023-04-13T03:55:13.193Z,6.45
2023-04-13T03:57:41.766Z,5.18
2023-04-13T04:00:14.280Z,4.00
2023-04-13T04:02:44.331Z,5.15
2023-04-13T04:05:12.768Z,4.53
2023-04-13T04:07:41.321Z,4.70
2023-04-13T04:10:10.618Z,4.60
2023-04-13T04:12:39.040Z,4.82
2023-04-13T04:15:09.141Z,4.35
2023-04-13T04:17:39.829Z,4.55
2023-04-13T04:20:11.352Z,5.18
2023-04-13T04:22:39.928Z,5.50
2023-04-13T04:25:08.984Z,4.85
2023-04-13T04:27:38.835Z,4.45
2023-04-13T04:30:11.000Z,4.55
2023-04-13T04:32:40.740Z,4.35
2023-04-13T04:35:12.685Z,5.55
2023-04-13T04:37:41.125Z,5.15
2023-04-13T04:40:11.150Z,4.35
2023-04-13T04:42:39.577Z,4.82
2023-04-13T04:45:09.513Z,4.18
2023-04-13T04:47:42.151Z,6.25
2023-04-13T04:50:12.990Z,4.47
2023-04-13T04:52:41.666Z,5.38
2023-04-13T04:55:10.832Z,4.40
2023-04-13T04:57:39.275Z,4.60
2023-04-13T05:00:15.089Z,5.32
2023-04-13T05:02:44.402Z,4.90
2023-04-13T05:05:14.723Z,5.35
2023-04-13T05:07:43.109Z,4.60
2023-04-13T05:10:11.806Z,4.68
2023-04-13T05:12:40.181Z,4.80
2023-04-13T05:15:10.025Z,4.97
2023-04-13T05:17:38.453Z,4.70
2023-04-13T05:20:08.960Z,4.88
2023-04-13T05:22:38.777Z,5.43
2023-04-13T05:25:09.522Z,4.50
2023-04-13T05:27:38.214Z,5.00
2023-04-13T05:30:08.919Z,4.60
2023-04-13T05:32:37.449Z,4.65
2023-04-13T05:35:07.295Z,4.28
2023-04-13T05:37:35.698Z,5.20
2023-04-13T05:40:14.492Z,4.70
2023-04-13T05:42:43.908Z,4.75
2023-04-13T05:45:13.280Z,4.40
2023-04-13T05:47:41.953Z,6.03
2023-04-13T05:50:11.913Z,5.78
2023-04-13T05:52:40.396Z,4.80
2023-04-13T05:55:11.764Z,12.10
2023-04-13T05:57:40.176Z,15.18
2023-04-13T06:00:10.697Z,17.30
2023-04-13T06:02:40.441Z,18.13
2023-04-13T06:05:09.986Z,16.90
2023-04-13T06:07:38.552Z,16.08
2023-04-13T06:10:10.333Z,12.40
2023-04-13T06:12:39.517Z,16.02
2023-04-13T06:15:09.274Z,14.73
2023-04-13T06:17:37.695Z,14.18
2023-04-13T06:20:08.202Z,11.77
2023-04-13T06:22:36.574Z,12.93
2023-04-13T06:25:05.716Z,15.60
2023-04-13T06:27:35.797Z,20.52
2023-04-13T06:30:05.239Z,16.73
2023-04-13T06:32:33.605Z,7.88
2023-04-13T06:35:02.065Z,15.35
2023-04-13T06:37:30.483Z,13.15
2023-04-13T06:39:58.889Z,12.18
2023-04-13T06:42:27.349Z,8.18
2023-04-13T06:44:57.093Z,10.80
2023-04-13T06:47:25.677Z,13.55
2023-04-13T06:49:54.103Z,13.50
2023-04-13T06:52:22.465Z,11.82
2023-04-13T06:54:51.192Z,11.35
2023-04-13T06:57:19.855Z,10.00
2023-04-13T06:59:48.273Z,11.88
2023-04-13T07:02:18.405Z,12.25
2023-04-13T07:04:46.911Z,7.93
2023-04-13T07:07:15.709Z,9.00
2023-04-13T07:09:44.124Z,12.52
2023-04-13T07:12:12.597Z,9.70
2023-04-13T07:14:41.904Z,10.02
2023-04-13T07:17:12.775Z,11.85
2023-04-13T07:19:46.116Z,10.73
2023-04-13T07:22:14.634Z,8.00
2023-04-13T07:24:43.048Z,7.40
2023-04-13T07:27:11.509Z,9.75
2023-04-13T07:29:40.096Z,10.63
2023-04-13T07:32:08.599Z,8.43
2023-04-13T07:34:37.979Z,6.95
2023-04-13T07:37:07.826Z,9.07
2023-04-13T07:39:36.191Z,8.05
2023-04-13T07:42:04.667Z,11.77
2023-04-13T07:44:33.152Z,7.95
2023-04-13T07:47:01.987Z,9.65
2023-04-13T07:49:30.622Z,9.32
2023-04-13T07:51:59.620Z,10.40
2023-04-13T07:54:29.388Z,6.63
2023-04-13T07:56:58.467Z,9.38
2023-04-13T07:59:26.861Z,7.63
2023-04-13T08:01:55.646Z,10.48
2023-04-13T08:04:24.248Z,10.15
2023-04-13T08:06:53.076Z,6.95
2023-04-13T08:09:21.975Z,7.53
2023-04-13T08:11:51.768Z,9.27
2023-04-13T08:14:20.316Z,9.00
2023-04-13T08:16:48.737Z,9.85
2023-04-13T08:19:17.436Z,9.82
2023-04-13T08:21:46.088Z,12.23
2023-04-13T08:24:14.578Z,9.73
2023-04-13T08:26:43.001Z,6.95
2023-04-13T08:29:14.060Z,7.85
2023-04-13T08:31:42.516Z,9.90
2023-04-13T08:34:12.847Z,9.15
2023-04-13T08:36:41.270Z,7.85
2023-04-13T08:39:10.533Z,8.82
2023-04-13T08:41:41.539Z,7.70
2023-04-13T08:44:10.727Z,5.93
2023-04-13T08:46:41.585Z,6.82
2023-04-13T08:49:11.368Z,7.68
2023-04-13T08:51:42.192Z,8.73
2023-04-13T08:54:12.097Z,6.43
2023-04-13T08:56:46.104Z,5.78
2023-04-13T08:59:16.399Z,9.95
2023-04-13T09:01:47.610Z,8.65
2023-04-13T09:04:19.084Z,8.23
2023-04-13T09:06:50.264Z,7.38
2023-04-13T09:09:20.818Z,6.68
2023-04-13T09:11:51.779Z,6.88
2023-04-13T09:14:22.120Z,8.90
2023-04-13T09:16:52.390Z,9.25
2023-04-13T09:19:30.845Z,10.02
2023-04-13T09:21:59.252Z,6.03
2023-04-13T09:24:27.910Z,6.28
2023-04-13T09:26:56.476Z,7.32
2023-04-13T09:29:24.880Z,5.30
2023-04-13T09:31:54.691Z,5.95
2023-04-13T09:34:29.824Z,4.95
2023-04-13T09:37:01.044Z,8.77
2023-04-13T09:39:31.012Z,4.68
2023-04-13T09:41:59.491Z,6.68
2023-04-13T09:44:31.167Z,5.00
2023-04-13T09:47:01.046Z,5.32
2023-04-13T09:49:39.232Z,5.47
2023-04-13T09:52:08.513Z,8.32
2023-04-13T09:54:37.116Z,7.00
2023-04-13T09:57:05.899Z,4.93
2023-04-13T09:59:34.297Z,6.15
2023-04-13T10:02:05.336Z,7.65
2023-04-13T10:04:35.935Z,5.30
2023-04-13T10:07:05.003Z,6.68
2023-04-13T10:09:33.434Z,4.78
2023-04-13T10:12:01.979Z,4.50
2023-04-13T10:14:39.265Z,5.07
2023-04-13T10:17:28.801Z,5.47
2023-04-13T10:19:57.326Z,5.47
2023-04-13T10:22:25.751Z,5.55
2023-04-13T10:24:54.190Z,5.82
2023-04-13T10:27:23.650Z,5.28
2023-04-13T10:29:52.365Z,4.93
2023-04-13T10:32:26.941Z,5.13
2023-04-13T10:34:55.696Z,5.70
2023-04-13T10:37:25.628Z,5.80
2023-04-13T10:40:05.803Z,4.95
2023-04-13T10:42:51.926Z,4.70
2023-04-13T10:45:24.105Z,7.18
2023-04-13T10:47:54.113Z,4.57
2023-04-13T10:50:23.499Z,5.63
2023-04-13T10:53:03.188Z,4.90
2023-04-13T10:55:31.917Z,4.63
2023-04-13T10:58:01.473Z,6.00
2023-04-13T11:00:45.512Z,5.57
2023-04-13T11:03:17.658Z,4.47
2023-04-13T11:05:47.356Z,5.18
2023-04-13T11:08:20.879Z,6.43
2023-04-13T11:10:53.294Z,4.75
2023-04-13T11:13:21.744Z,4.88
2023-04-13T11:15:51.863Z,3.78
2023-04-13T11:18:27.488Z,5.15
2023-04-13T11:20:55.839Z,3.80
2023-04-13T11:23:24.797Z,5.25
2023-04-13T11:25:54.916Z,4.50
2023-04-13T11:28:24.114Z,6.57
2023-04-13T11:30:56.557Z,4.60
2023-04-13T11:33:31.349Z,4.93
2023-04-13T11:36:01.243Z,3.90
2023-04-13T11:38:30.051Z,4.07
2023-04-13T11:43:36.537Z,5.63
2023-04-13T11:46:06.045Z,6.93
2023-04-13T11:48:36.045Z,7.22
2023-04-13T11:51:05.091Z,14.27
2023-04-13T11:53:35.602Z,10.80
2023-04-13T11:56:04.397Z,8.18
2023-04-13T11:58:32.807Z,5.72
2023-04-13T12:01:03.891Z,9.73
2023-04-13T12:03:52.804Z,10.85
2023-04-13T12:06:25.965Z,9.57
2023-04-13T12:09:09.382Z,7.97
2023-04-13T12:11:42.729Z,10.05
2023-04-13T12:14:49.864Z,10.25
2023-04-13T12:17:37.498Z,8.50
2023-04-13T12:20:04.907Z,6.80
2023-04-13T12:22:49.668Z,8.73
2023-04-13T12:25:24.011Z,6.20
2023-04-13T12:27:53.342Z,8.10
2023-04-13T12:30:23.056Z,11.45
2023-04-13T12:32:54.448Z,5.10
2023-04-13T12:35:24.597Z,8.20
2023-04-13T12:37:53.182Z,5.78
2023-04-13T12:40:21.892Z,5.00
2023-04-13T12:42:50.666Z,9.20
2023-04-13T12:45:19.191Z,5.57
2023-04-13T12:47:47.793Z,4.35
2023-04-13T12:50:16.377Z,5.55
2023-04-13T12:52:46.184Z,5.57
2023-04-13T12:55:14.583Z,6.78
2023-04-13T12:57:43.018Z,8.50
2023-04-13T13:00:12.872Z,4.03
2023-04-13T13:02:41.370Z,5.13
2023-04-13T13:05:10.443Z,5.22
2023-04-13T13:07:40.097Z,5.28
2023-04-13T13:10:25.805Z,4.47
2023-04-13T13:12:58.075Z,7.05
2023-04-13T13:15:26.617Z,6.15
2023-04-13T13:17:55.044Z,5.35
2023-04-13T13:20:24.128Z,6.00
2023-04-13T13:22:53.089Z,4.65
2023-04-13T13:25:22.811Z,5.13
2023-04-13T13:30:22.444Z,5.13
2023-04-13T13:32:50.958Z,3.35
2023-04-13T13:35:19.364Z,4.50
2023-04-13T13:37:47.791Z,6.28
2023-04-13T13:40:16.693Z,5.82
2023-04-13T13:42:51.352Z,4.00
2023-04-13T13:45:21.388Z,4.07
2023-04-13T13:47:52.894Z,3.55
2023-04-13T13:50:21.854Z,3.70
2023-04-13T13:53:02.397Z,4.32
2023-04-13T13:55:32.160Z,3.35
2023-04-13T13:58:02.145Z,4.00
2023-04-13T14:00:31.246Z,3.70
2023-04-13T14:03:00.222Z,3.55
2023-04-13T14:05:28.794Z,5.10
2023-04-13T14:07:57.163Z,4.47
2023-04-13T14:10:25.808Z,3.60
2023-04-13T14:12:55.778Z,3.50
2023-04-13T14:15:25.800Z,3.30
2023-04-13T14:18:09.121Z,3.80
2023-04-13T14:20:40.200Z,3.33
2023-04-13T14:23:09.731Z,3.40
2023-04-13T14:25:38.962Z,3.30
2023-04-13T14:28:09.283Z,3.08
2023-04-13T14:30:40.568Z,4.10
2023-04-13T14:33:09.139Z,4.25
2023-04-13T14:35:38.835Z,4.32
2023-04-13T14:38:08.326Z,3.42
2023-04-13T14:40:36.725Z,3.28
2023-04-13T14:43:05.190Z,3.47
2023-04-13T14:45:33.585Z,2.60
2023-04-13T14:48:03.548Z,3.22
2023-04-13T14:50:32.159Z,3.00
2023-04-13T14:53:03.608Z,5.72
2023-04-13T14:55:32.093Z,4.22
2023-04-13T14:58:01.940Z,5.05
2023-04-13T15:00:39.679Z,3.13
2023-04-13T15:03:09.992Z,4.95
2023-04-13T15:05:39.781Z,4.93
2023-04-13T15:08:08.780Z,2.63
2023-04-13T15:10:37.316Z,3.72
2023-04-13T15:13:07.291Z,4.35
2023-04-13T15:15:37.079Z,3.92
2023-04-13T15:18:06.043Z,3.15
2023-04-13T15:20:35.804Z,4.82
2023-04-13T15:23:04.218Z,6.90
2023-04-13T15:25:32.636Z,5.55
2023-04-13T15:28:01.317Z,5.65
2023-04-13T15:30:30.824Z,8.75
2023-04-13T15:33:02.302Z,3.50
2023-04-13T15:35:31.227Z,6.47
2023-04-13T15:38:02.387Z,3.53
2023-04-13T15:40:32.866Z,7.57
2023-04-13T15:43:01.346Z,4.13
2023-04-13T15:45:29.877Z,3.63
2023-04-13T15:47:58.447Z,3.90
2023-04-13T15:50:26.979Z,3.10
2023-04-13T15:52:55.413Z,4.50
2023-04-13T15:55:25.617Z,5.90
2023-04-13T15:57:58.410Z,4.13
2023-04-13T16:00:27.439Z,4.75
2023-04-13T16:02:56.838Z,8.00
2023-04-13T16:05:25.504Z,4.53
2023-04-13T16:07:54.976Z,4.60
2023-04-13T16:10:24.860Z,4.57
2023-04-13T16:12:54.914Z,4.07
2023-04-13T16:15:24.381Z,5.47
2023-04-13T16:17:56.950Z,5.55
2023-04-13T16:20:28.568Z,3.95
2023-04-13T16:23:02.375Z,3.40
2023-04-13T16:25:32.358Z,5.30
2023-04-13T16:28:00.884Z,3.28
2023-04-13T16:30:29.389Z,4.38
2023-04-13T16:32:57.871Z,9.27
2023-04-13T16:35:26.853Z,4.55
2023-04-13T16:37:55.713Z,3.67
2023-04-13T16:40:24.294Z,4.18
2023-04-13T16:42:54.079Z,7.00
2023-04-13T16:45:24.607Z,12.77
2023-04-13T16:47:54.737Z,4.40
2023-04-13T16:50:29.021Z,19.30
2023-04-13T16:52:58.838Z,16.08
2023-04-13T16:55:28.735Z,14.60
2023-04-13T16:57:58.736Z,12.77
2023-04-13T17:00:27.179Z,14.57
2023-04-13T17:02:55.959Z,9.90
2023-04-13T17:05:28.466Z,9.68
2023-04-13T17:07:59.340Z,12.82
2023-04-13T17:10:28.115Z,11.00
2023-04-13T17:12:57.958Z,6.28
2023-04-13T17:15:26.748Z,9.45
2023-04-13T17:17:55.642Z,17.33
2023-04-13T17:20:24.358Z,7.55
2023-04-13T17:22:54.211Z,12.32
2023-04-13T17:25:22.718Z,9.52
2023-04-13T17:27:53.258Z,9.27
2023-04-13T17:30:23.409Z,7.80
2023-04-13T17:32:52.387Z,6.82
2023-04-13T17:35:21.478Z,11.55
2023-04-13T17:37:50.021Z,11.90
2023-04-13T17:40:20.660Z,8.68
2023-04-13T17:42:49.382Z,5.90
2023-04-13T17:45:18.860Z,11.00
2023-04-13T17:47:48.639Z,8.88
2023-04-13T17:50:17.294Z,6.82
2023-04-13T17:52:45.799Z,6.28
2023-04-13T17:55:15.083Z,11.65
2023-04-13T17:57:43.583Z,8.30
2023-04-13T18:00:14.512Z,7.43
2023-04-13T18:02:43.108Z,8.63
2023-04-13T18:05:15.503Z,10.70
2023-04-13T18:07:44.094Z,6.32
2023-04-13T18:10:12.741Z,9.68
2023-04-13T18:12:41.680Z,9.23
2023-04-13T18:15:10.646Z,10.30
2023-04-13T18:17:39.276Z,10.75
2023-04-13T18:20:09.535Z,12.30
2023-04-13T18:22:39.310Z,12.07
2023-04-13T18:25:08.300Z,11.27
2023-04-13T18:27:36.693Z,11.77
2023-04-13T18:30:06.020Z,12.73
2023-04-13T18:32:34.473Z,11.38
2023-04-13T18:35:04.652Z,11.52
2023-04-13T18:37:33.059Z,9.70
2023-04-13T18:40:04.508Z,8.80
2023-04-13T18:42:33.648Z,11.55
2023-04-13T18:45:02.170Z,7.53
2023-04-13T18:47:30.695Z,9.52
2023-04-13T18:49:59.685Z,9.43
2023-04-13T18:52:28.665Z,9.18
2023-04-13T18:54:57.019Z,12.15
2023-04-13T18:57:27.542Z,10.00
2023-04-13T18:59:56.957Z,8.18
2023-04-13T19:02:25.705Z,9.98
2023-04-13T19:04:54.288Z,11.35
2023-04-13T19:07:22.693Z,6.55
2023-04-13T19:09:51.110Z,8.85
2023-04-13T19:12:19.577Z,8.25
2023-04-13T19:14:49.382Z,9.48
2023-04-13T19:17:17.810Z,8.30
2023-04-13T19:19:46.254Z,9.90
2023-04-13T19:22:14.645Z,7.60
2023-04-13T19:24:43.131Z,7.00
2023-04-13T19:27:11.443Z,11.02
2023-04-13T19:29:40.426Z,7.03
2023-04-13T19:32:12.451Z,9.73
2023-04-13T19:34:41.025Z,7.28
2023-04-13T19:37:09.542Z,10.05
2023-04-13T19:39:38.455Z,10.73
2023-04-13T19:42:06.996Z,10.40
2023-04-13T19:44:36.275Z,9.32
2023-04-13T19:47:04.848Z,9.07
2023-04-13T19:49:34.728Z,8.77
2023-04-13T19:52:03.959Z,9.55
2023-04-13T19:54:32.692Z,8.63
2023-04-13T19:57:01.045Z,6.70
2023-04-13T19:59:29.472Z,9.55
2023-04-13T20:01:58.042Z,10.15
2023-04-13T20:04:26.636Z,8.75
2023-04-13T20:06:56.799Z,7.38
2023-04-13T20:09:25.187Z,8.00
2023-04-13T20:11:53.529Z,6.65
2023-04-13T20:14:22.075Z,7.50
2023-04-13T20:16:50.517Z,10.45
2023-04-13T20:19:19.826Z,7.05
2023-04-13T20:21:51.451Z,7.25
2023-04-13T20:24:21.315Z,9.45
2023-04-13T20:26:49.709Z,7.80
2023-04-13T20:29:21.826Z,7.18
2023-04-13T20:31:50.856Z,6.15
2023-04-13T20:34:20.359Z,8.15
2023-04-13T20:36:48.798Z,9.88
2023-04-13T20:39:22.065Z,7.65
2023-04-13T20:41:55.311Z,8.45
2023-04-13T20:44:24.760Z,6.40
2023-04-13T20:46:55.035Z,6.72
2023-04-13T20:49:23.783Z,8.43
2023-04-13T20:51:53.775Z,10.23
2023-04-13T20:54:22.513Z,8.02
2023-04-13T20:56:52.246Z,8.13
2023-04-13T20:59:20.626Z,7.20
2023-04-13T21:01:50.197Z,9.82
2023-04-13T21:04:18.819Z,12.82
2023-04-13T21:06:48.324Z,15.70
2023-04-13T21:09:16.877Z,18.77
2023-04-13T21:11:47.528Z,20.23
2023-04-13T21:14:21.244Z,15.57
2023-04-13T21:16:49.735Z,15.82
2023-04-13T21:19:18.144Z,14.52
2023-04-13T21:21:46.548Z,15.88
2023-04-13T21:24:14.937Z,16.13
2023-04-13T21:26:43.274Z,17.48
2023-04-13T21:29:11.806Z,15.77
2023-04-13T21:31:41.592Z,18.73
2023-04-13T21:34:10.170Z,18.75
2023-04-13T21:39:09.741Z,16.02
2023-04-13T21:41:40.143Z,15.40
2023-04-13T21:44:16.173Z,12.75
2023-04-13T21:46:52.381Z,16.15
2023-04-13T21:49:20.872Z,12.80
2023-04-13T21:51:49.575Z,11.93
2023-04-13T21:54:17.912Z,15.18
2023-04-13T21:56:46.792Z,11.93
2023-04-13T21:59:15.398Z,11.93
2023-04-13T22:01:43.805Z,9.38
2023-04-13T22:04:13.905Z,12.55
2023-04-13T22:06:42.511Z,14.43
2023-04-13T22:09:12.430Z,11.23
2023-04-13T22:11:41.050Z,12.27
2023-04-13T22:14:09.625Z,10.95
2023-04-13T22:16:37.973Z,13.15
2023-04-13T22:19:06.343Z,14.15
2023-04-13T22:21:37.995Z,10.93
2023-04-13T22:24:07.007Z,13.30
2023-04-13T22:26:35.409Z,12.43
2023-04-13T22:29:03.753Z,14.38
2023-04-13T22:31:32.428Z,11.43
2023-04-13T22:34:00.777Z,10.25
2023-04-13T22:36:29.131Z,9.30
2023-04-13T22:38:59.258Z,14.25
2023-04-13T22:41:27.865Z,12.80
2023-04-13T22:43:56.568Z,12.07
2023-04-13T22:46:24.986Z,10.75
2023-04-13T22:48:53.382Z,11.60
2023-04-13T22:51:21.759Z,10.80
2023-04-13T22:53:50.159Z,10.32
2023-04-13T22:56:19.934Z,13.98
2023-04-13T22:58:48.277Z,10.18
2023-04-13T23:01:17.137Z,12.38
2023-04-13T23:03:45.674Z,11.63
2023-04-13T23:06:14.141Z,9.73
2023-04-13T23:08:42.454Z,11.10
2023-04-13T23:11:11.126Z,9.35
2023-04-13T23:13:41.823Z,9.45
2023-04-13T23:16:10.264Z,10.00
2023-04-13T23:18:38.663Z,11.77
2023-04-13T23:21:13.296Z,8.15
2023-04-13T23:23:41.660Z,8.18
2023-04-13T23:26:09.967Z,10.43
2023-04-13T23:28:38.321Z,8.02
2023-04-13T23:31:08.793Z,7.60
2023-04-13T23:33:37.344Z,9.27
2023-04-13T23:36:06.507Z,8.52
2023-04-13T23:38:34.887Z,8.13
2023-04-13T23:41:03.231Z,8.20
2023-04-13T23:43:32.564Z,8.98
2023-04-13T23:46:00.972Z,7.60
2023-04-13T23:48:30.765Z,9.25
2023-04-13T23:50:59.124Z,8.75
2023-04-13T23:53:27.501Z,9.80
2023-04-13T23:55:56.076Z,11.45
2023-04-13T23:58:24.462Z,8.20
